createdAt,value
2023-02-09T00:00:53.094Z,24.48
2023-02-09T00:03:38.988Z,26.20
2023-02-09T00:06:26.379Z,25.55
2023-02-09T00:09:12.272Z,25.90
2023-02-09T00:12:16.152Z,26.33
2023-02-09T00:15:01.707Z,24.67
2023-02-09T00:17:47.307Z,23.92
2023-02-09T00:20:32.805Z,25.40
2023-02-09T00:23:18.329Z,25.40
2023-02-09T00:26:07.223Z,25.48
2023-02-09T00:28:52.947Z,24.88
2023-02-09T00:31:38.742Z,25.27
2023-02-09T00:34:24.219Z,26.00
2023-02-09T00:37:09.859Z,25.70
2023-02-09T00:39:55.502Z,27.08
2023-02-09T00:42:41.754Z,25.05
2023-02-09T00:45:27.541Z,24.45
2023-02-09T00:48:13.271Z,27.98
2023-02-09T00:50:58.990Z,25.00
2023-02-09T00:53:44.604Z,24.95
2023-02-09T00:56:30.136Z,25.33
2023-02-09T00:59:15.606Z,24.70
2023-02-09T01:02:01.384Z,26.98
2023-02-09T01:04:47.319Z,23.38
2023-02-09T01:07:33.374Z,24.77
2023-02-09T01:10:19.080Z,24.67
2023-02-09T01:13:04.807Z,24.42
2023-02-09T01:15:50.076Z,25.45
2023-02-09T01:18:35.954Z,24.73
2023-02-09T01:21:23.040Z,25.35
2023-02-09T01:24:11.991Z,24.40
2023-02-09T01:26:57.409Z,23.67
2023-02-09T01:29:42.840Z,22.65
2023-02-09T01:32:28.368Z,25.27
2023-02-09T01:35:13.618Z,26.02
2023-02-09T01:37:59.176Z,26.70
2023-02-09T01:40:49.414Z,26.13
2023-02-09T01:44:00.972Z,25.40
2023-02-09T01:46:46.277Z,24.50
2023-02-09T01:49:32.296Z,26.67
2023-02-09T01:52:28.026Z,24.23
2023-02-09T01:55:18.197Z,27.88
2023-02-09T01:58:08.728Z,25.60
2023-02-09T02:00:54.848Z,26.48
2023-02-09T02:03:40.705Z,25.67
2023-02-09T02:06:26.544Z,26.48
2023-02-09T02:09:14.358Z,27.25
2023-02-09T02:11:59.990Z,27.25
2023-02-09T02:14:45.632Z,25.40
2023-02-09T02:17:59.973Z,28.38
2023-02-09T02:20:48.396Z,29.13
2023-02-09T02:23:55.641Z,27.77
2023-02-09T02:26:59.432Z,26.45
2023-02-09T02:33:12.306Z,26.15
2023-02-09T02:36:06.489Z,26.95
2023-02-09T02:39:19.899Z,26.88
2023-02-09T02:42:38.520Z,26.13
2023-02-09T02:45:56.133Z,24.35
2023-02-09T02:48:58.945Z,25.33
2023-02-09T02:51:47.623Z,26.27
2023-02-09T02:54:37.441Z,26.23
2023-02-09T02:57:28.689Z,24.13
2023-02-09T03:00:21.398Z,25.27
2023-02-09T03:03:32.303Z,24.17
2023-02-09T03:06:18.639Z,25.50
2023-02-09T03:09:04.631Z,26.50
2023-02-09T03:11:54.632Z,24.85
2023-02-09T03:14:51.926Z,25.40
2023-02-09T03:17:48.418Z,25.58
2023-02-09T03:20:44.044Z,26.70
2023-02-09T03:23:53.662Z,23.33
2023-02-09T03:26:57.571Z,25.50
2023-02-09T03:29:47.971Z,23.95
2023-02-09T03:32:39.183Z,23.33
2023-02-09T03:35:31.410Z,22.42
2023-02-09T03:38:17.680Z,22.80
2023-02-09T03:41:03.366Z,23.17
2023-02-09T03:44:07.403Z,23.75
2023-02-09T03:47:01.253Z,22.02
2023-02-09T03:52:31.668Z,20.67
2023-02-09T03:55:17.231Z,20.77
2023-02-09T03:58:02.693Z,20.90
2023-02-09T04:00:48.240Z,22.23
2023-02-09T04:03:35.526Z,21.05
2023-02-09T04:06:24.277Z,23.55
2023-02-09T04:09:10.771Z,21.83
2023-02-09T04:11:56.282Z,19.73
2023-02-09T04:14:42.025Z,21.48
2023-02-09T04:17:27.564Z,19.92
2023-02-09T04:20:13.139Z,18.10
2023-02-09T04:22:58.647Z,18.65
2023-02-09T04:25:44.273Z,19.45
2023-02-09T04:28:29.570Z,21.80
2023-02-09T04:31:15.341Z,20.90
2023-02-09T04:34:01.022Z,18.80
2023-02-09T04:36:46.174Z,19.02
2023-02-09T04:39:31.930Z,17.77
2023-02-09T04:42:17.713Z,17.92
2023-02-09T04:45:04.143Z,17.17
2023-02-09T04:47:49.729Z,16.77
2023-02-09T04:50:35.560Z,15.57
2023-02-09T04:53:21.384Z,14.98
2023-02-09T04:56:06.787Z,15.43
2023-02-09T04:59:10.572Z,15.98
2023-02-09T05:01:56.367Z,14.02
2023-02-09T05:04:42.149Z,14.07
2023-02-09T05:07:27.940Z,13.63
2023-02-09T05:10:13.484Z,12.65
2023-02-09T05:12:59.014Z,12.60
2023-02-09T05:15:44.448Z,12.77
2023-02-09T05:18:30.886Z,12.25
2023-02-09T05:21:16.569Z,11.85
2023-02-09T05:24:02.060Z,11.75
2023-02-09T05:26:47.628Z,11.60
2023-02-09T05:29:33.646Z,11.50
2023-02-09T05:32:18.825Z,12.23
2023-02-09T05:35:08.353Z,11.05
2023-02-09T05:37:54.027Z,12.13
2023-02-09T05:40:39.660Z,11.05
2023-02-09T05:43:24.942Z,10.25
2023-02-09T05:46:10.583Z,10.82
2023-02-09T05:48:56.030Z,10.55
2023-02-09T05:51:41.582Z,10.68
2023-02-09T05:54:27.271Z,10.27
2023-02-09T05:57:12.735Z,10.35
2023-02-09T05:59:58.259Z,9.73
2023-02-09T06:02:43.732Z,11.10
2023-02-09T06:05:30.120Z,10.82
2023-02-09T06:08:15.946Z,9.48
2023-02-09T06:11:04.570Z,10.70
2023-02-09T06:13:50.391Z,9.93
2023-02-09T06:16:44.138Z,9.88
2023-02-09T06:19:31.291Z,10.15
2023-02-09T06:22:16.799Z,9.35
2023-02-09T06:25:02.426Z,9.70
2023-02-09T06:27:48.016Z,9.48
2023-02-09T06:30:33.330Z,8.77
2023-02-09T06:33:19.705Z,8.02
2023-02-09T06:36:06.685Z,8.85
2023-02-09T06:38:52.577Z,9.10
2023-02-09T06:41:38.081Z,9.27
2023-02-09T06:44:23.364Z,9.57
2023-02-09T06:47:09.695Z,9.00
2023-02-09T06:49:58.936Z,10.25
2023-02-09T06:52:45.628Z,8.93
2023-02-09T06:55:31.869Z,9.90
2023-02-09T06:58:20.156Z,10.05
2023-02-09T07:01:11.613Z,11.30
2023-02-09T07:03:56.928Z,12.18
2023-02-09T07:06:42.551Z,10.15
2023-02-09T07:09:28.011Z,11.05
2023-02-09T07:12:13.654Z,10.35
2023-02-09T07:14:59.289Z,12.02
2023-02-09T07:17:46.225Z,10.93
2023-02-09T07:20:31.715Z,10.90
2023-02-09T07:23:23.009Z,11.00
2023-02-09T07:26:13.498Z,13.00
2023-02-09T07:29:00.408Z,10.10
2023-02-09T07:31:46.279Z,10.50
2023-02-09T07:34:32.516Z,10.98
2023-02-09T07:37:18.495Z,11.52
2023-02-09T07:40:04.642Z,11.57
2023-02-09T07:42:51.826Z,11.27
2023-02-09T07:45:37.448Z,12.25
2023-02-09T07:48:23.280Z,12.82
2023-02-09T07:51:16.722Z,13.40
2023-02-09T07:54:02.610Z,13.77
2023-02-09T07:56:48.117Z,13.70
2023-02-09T07:59:33.810Z,14.48
2023-02-09T08:02:31.300Z,13.30
2023-02-09T08:05:35.251Z,14.18
2023-02-09T08:08:21.136Z,14.70
2023-02-09T08:11:06.955Z,13.63
2023-02-09T08:13:54.553Z,14.77
2023-02-09T08:16:41.186Z,13.55
2023-02-09T08:19:26.707Z,14.30
2023-02-09T08:22:12.521Z,13.52
2023-02-09T08:24:59.349Z,12.98
2023-02-09T08:27:46.025Z,13.38
2023-02-09T08:30:33.244Z,15.13
2023-02-09T08:33:18.887Z,13.38
2023-02-09T08:36:04.514Z,14.40
2023-02-09T08:38:50.476Z,13.52
2023-02-09T08:41:35.968Z,13.43
2023-02-09T08:44:21.574Z,15.00
2023-02-09T08:47:07.264Z,14.10
2023-02-09T08:49:53.131Z,15.60
2023-02-09T08:52:39.049Z,15.90
2023-02-09T08:55:25.388Z,16.67
2023-02-09T08:58:11.791Z,18.20
2023-02-09T09:00:59.977Z,16.35
2023-02-09T09:03:45.554Z,18.17
2023-02-09T09:06:31.438Z,19.38
2023-02-09T09:09:26.104Z,20.27
2023-02-09T09:12:13.117Z,18.40
2023-02-09T09:14:58.838Z,18.90
2023-02-09T09:17:44.533Z,18.60
2023-02-09T09:20:30.529Z,19.40
2023-02-09T09:23:16.677Z,18.73
2023-02-09T09:26:03.346Z,17.80
2023-02-09T09:28:52.306Z,19.55
2023-02-09T09:31:38.254Z,20.00
2023-02-09T09:34:23.880Z,23.65
2023-02-09T09:37:09.672Z,22.75
2023-02-09T09:39:55.112Z,23.13
2023-02-09T09:42:48.510Z,23.83
2023-02-09T09:45:37.978Z,24.17
2023-02-09T09:48:26.663Z,23.67
2023-02-09T09:51:47.571Z,26.30
2023-02-09T09:54:47.794Z,23.67
2023-02-09T09:57:46.672Z,21.38
2023-02-09T10:00:42.871Z,26.95
2023-02-09T10:03:48.602Z,26.85
2023-02-09T10:06:48.908Z,21.00
2023-02-09T10:10:01.305Z,20.63
2023-02-09T10:13:02.771Z,17.70
2023-02-09T10:16:02.401Z,19.02
2023-02-09T10:19:25.148Z,16.85
2023-02-09T10:22:23.151Z,16.83
2023-02-09T10:26:18.006Z,16.55
2023-02-09T10:29:28.830Z,16.27
2023-02-09T10:32:30.233Z,15.85
2023-02-09T10:35:37.132Z,17.30
2023-02-09T10:38:42.200Z,15.63
2023-02-09T10:41:37.120Z,15.65
2023-02-09T10:44:32.012Z,14.93
2023-02-09T10:47:31.971Z,13.60
2023-02-09T10:50:22.917Z,15.38
2023-02-09T10:53:36.934Z,13.60
2023-02-09T10:59:32.842Z,13.45
2023-02-09T11:02:43.645Z,13.07
2023-02-09T11:05:39.210Z,11.68
2023-02-09T11:09:10.537Z,11.73
2023-02-09T11:12:11.743Z,12.27
2023-02-09T11:15:00.830Z,13.23
2023-02-09T11:18:18.086Z,13.30
2023-02-09T11:22:01.778Z,12.38
2023-02-09T11:28:21.748Z,14.27
2023-02-09T11:31:36.433Z,13.52
2023-02-09T11:34:57.301Z,15.10
2023-02-09T11:38:01.879Z,14.88
2023-02-09T11:40:55.971Z,14.38
2023-02-09T11:43:49.185Z,13.68
2023-02-09T11:46:47.534Z,14.93
2023-02-09T11:49:58.490Z,13.52
2023-02-09T11:53:04.177Z,13.93
2023-02-09T11:56:05.614Z,13.32
2023-02-09T11:59:11.071Z,13.13
2023-02-09T12:01:56.967Z,15.55
2023-02-09T12:04:47.936Z,14.20
2023-02-09T12:08:04.205Z,13.95
2023-02-09T12:11:10.507Z,13.48
2023-02-09T12:14:22.079Z,13.90
2023-02-09T12:17:20.970Z,13.88
2023-02-09T12:20:24.047Z,14.55
2023-02-09T12:23:39.987Z,14.05
2023-02-09T12:26:43.471Z,13.60
2023-02-09T12:32:41.928Z,11.85
2023-02-09T12:35:39.453Z,12.70
2023-02-09T12:38:25.781Z,12.45
2023-02-09T12:41:13.307Z,12.88
2023-02-09T12:44:06.778Z,13.82
2023-02-09T12:46:55.915Z,12.38
2023-02-09T12:49:43.966Z,14.02
2023-02-09T12:52:30.386Z,12.52
2023-02-09T12:55:22.239Z,13.15
2023-02-09T12:58:36.301Z,13.48
2023-02-09T13:01:22.549Z,13.45
2023-02-09T13:04:09.490Z,13.82
2023-02-09T13:06:58.633Z,13.52
2023-02-09T13:09:48.990Z,13.50
2023-02-09T13:12:45.649Z,13.55
2023-02-09T13:15:56.758Z,13.55
2023-02-09T13:19:04.596Z,12.85
2023-02-09T13:22:21.503Z,12.98
2023-02-09T13:25:34.467Z,15.30
2023-02-09T13:28:23.465Z,13.20
2023-02-09T13:31:50.698Z,15.25
2023-02-09T13:34:59.233Z,15.65
2023-02-09T13:37:55.156Z,14.60
2023-02-09T13:40:48.044Z,14.80
2023-02-09T13:43:44.908Z,12.75
2023-02-09T13:46:43.728Z,11.90
2023-02-09T13:49:33.209Z,11.90
2023-02-09T13:52:26.875Z,11.52
2023-02-09T13:55:26.827Z,10.18
2023-02-09T13:58:40.236Z,10.68
2023-02-09T14:01:31.633Z,9.80
2023-02-09T14:04:31.558Z,10.23
2023-02-09T14:07:18.249Z,10.90
2023-02-09T14:10:12.844Z,11.45
2023-02-09T14:13:05.805Z,11.95
2023-02-09T14:16:08.874Z,10.30
2023-02-09T14:18:59.719Z,10.30
2023-02-09T14:21:45.995Z,9.77
2023-02-09T14:24:44.763Z,9.70
2023-02-09T14:27:39.215Z,9.57
2023-02-09T14:30:29.693Z,9.73
2023-02-09T14:33:34.742Z,9.57
2023-02-09T14:36:34.396Z,9.13
2023-02-09T14:39:21.427Z,8.43
2023-02-09T14:42:19.822Z,9.32
2023-02-09T14:45:16.096Z,9.32
2023-02-09T14:48:03.650Z,9.05
2023-02-09T14:50:53.167Z,9.30
2023-02-09T14:53:49.731Z,8.95
2023-02-09T14:56:35.718Z,9.50
2023-02-09T14:59:23.337Z,10.43
2023-02-09T15:02:25.528Z,10.57
2023-02-09T15:05:11.872Z,10.38
2023-02-09T15:08:05.816Z,10.57
2023-02-09T15:11:03.716Z,9.55
2023-02-09T15:13:56.853Z,9.50
2023-02-09T15:16:45.836Z,8.27
2023-02-09T15:19:37.857Z,7.72
2023-02-09T15:22:24.466Z,8.75
2023-02-09T15:25:13.684Z,8.93
2023-02-09T15:28:01.201Z,9.13
2023-02-09T15:30:47.639Z,8.90
2023-02-09T15:33:34.210Z,7.95
2023-02-09T15:36:26.454Z,8.82
2023-02-09T15:39:19.035Z,8.93
2023-02-09T15:42:34.744Z,10.02
2023-02-09T15:45:45.861Z,9.10
2023-02-09T15:48:38.888Z,9.30
2023-02-09T15:51:42.377Z,9.43
2023-02-09T15:54:34.661Z,9.23
2023-02-09T15:57:21.416Z,9.23
2023-02-09T16:00:29.464Z,6.35
2023-02-09T16:03:20.846Z,8.82
2023-02-09T16:06:24.757Z,7.68
2023-02-09T16:09:18.026Z,7.28
2023-02-09T16:12:05.349Z,4.68
2023-02-09T16:14:53.167Z,3.00
2023-02-09T16:17:39.055Z,3.50
2023-02-09T16:20:26.225Z,3.35
2023-02-09T16:23:20.891Z,3.38
2023-02-09T16:26:09.028Z,3.17
2023-02-09T16:28:54.985Z,2.47
2023-02-09T16:31:41.688Z,3.30
2023-02-09T16:34:27.387Z,3.08
2023-02-09T16:37:23.979Z,2.50
2023-02-09T16:40:27.025Z,3.20
2023-02-09T16:43:13.369Z,2.85
2023-02-09T16:46:03.777Z,2.85
2023-02-09T16:48:50.170Z,2.65
2023-02-09T16:51:38.555Z,4.07
2023-02-09T16:54:26.888Z,4.63
2023-02-09T16:57:15.928Z,3.15
2023-02-09T17:00:01.668Z,3.25
2023-02-09T17:02:54.157Z,3.15
2023-02-09T17:05:45.096Z,3.33
2023-02-09T17:08:38.478Z,3.72
2023-02-09T17:11:26.596Z,3.28
2023-02-09T17:14:12.880Z,3.97
2023-02-09T17:17:03.420Z,4.53
2023-02-09T17:19:59.523Z,4.32
2023-02-09T17:22:46.849Z,3.85
2023-02-09T17:25:32.481Z,3.67
2023-02-09T17:28:19.984Z,3.78
2023-02-09T17:31:50.653Z,4.75
2023-02-09T17:34:36.626Z,3.63
2023-02-09T17:37:22.484Z,3.17
2023-02-09T17:40:12.250Z,3.30
2023-02-09T17:42:57.945Z,3.55
2023-02-09T17:45:49.014Z,4.65
2023-02-09T17:48:34.971Z,3.95
2023-02-09T17:51:28.471Z,3.35
2023-02-09T17:54:19.141Z,3.72
2023-02-09T17:57:04.581Z,5.30
2023-02-09T17:59:50.314Z,7.13
2023-02-09T18:02:36.020Z,7.47
2023-02-09T18:05:24.202Z,7.70
2023-02-09T18:08:19.158Z,8.05
2023-02-09T18:11:16.546Z,7.32
2023-02-09T18:14:02.199Z,6.47
2023-02-09T18:16:48.538Z,7.13
2023-02-09T18:19:34.231Z,7.45
2023-02-09T18:22:20.611Z,9.07
2023-02-09T18:25:06.421Z,8.07
2023-02-09T18:27:52.565Z,7.72
2023-02-09T18:30:39.735Z,8.25
2023-02-09T18:33:25.269Z,8.88
2023-02-09T18:36:10.747Z,8.15
2023-02-09T18:38:56.165Z,8.25
2023-02-09T18:41:41.825Z,8.43
2023-02-09T18:44:32.531Z,9.27
2023-02-09T18:47:18.179Z,8.70
2023-02-09T18:50:05.009Z,7.40
2023-02-09T18:52:59.391Z,7.72
2023-02-09T18:55:45.609Z,7.20
2023-02-09T18:58:33.671Z,7.55
2023-02-09T19:01:21.508Z,7.13
2023-02-09T19:04:10.025Z,8.50
2023-02-09T19:06:56.436Z,8.05
2023-02-09T19:09:46.295Z,6.82
2023-02-09T19:12:36.318Z,7.45
2023-02-09T19:15:26.366Z,7.65
2023-02-09T19:18:19.851Z,8.68
2023-02-09T19:21:07.354Z,6.97
2023-02-09T19:23:55.430Z,9.68
2023-02-09T19:26:42.248Z,9.75
2023-02-09T19:29:29.156Z,9.57
2023-02-09T19:32:15.394Z,8.63
2023-02-09T19:35:04.333Z,11.18
2023-02-09T19:37:52.340Z,9.35
2023-02-09T19:40:40.935Z,7.68
2023-02-09T19:43:26.448Z,8.07
2023-02-09T19:46:13.309Z,7.93
2023-02-09T19:48:59.444Z,8.98
2023-02-09T19:51:44.974Z,9.10
2023-02-09T19:54:30.199Z,8.02
2023-02-09T19:57:16.326Z,8.55
2023-02-09T20:00:04.461Z,8.32
2023-02-09T20:02:51.340Z,8.63
2023-02-09T20:05:40.092Z,9.98
2023-02-09T20:08:25.651Z,10.15
2023-02-09T20:11:15.896Z,9.55
2023-02-09T20:14:02.017Z,9.45
2023-02-09T20:16:50.178Z,10.43
2023-02-09T20:19:37.231Z,12.60
2023-02-09T20:22:24.215Z,11.23
2023-02-09T20:25:10.667Z,11.20
2023-02-09T20:27:56.619Z,12.35
2023-02-09T20:30:46.267Z,13.05
2023-02-09T20:33:32.679Z,12.90
2023-02-09T20:36:19.325Z,12.75
2023-02-09T20:39:27.516Z,10.80
2023-02-09T20:42:54.883Z,9.60
2023-02-09T20:46:32.468Z,9.82
2023-02-09T20:53:01.653Z,9.57
2023-02-09T20:55:47.205Z,10.65
2023-02-09T20:58:32.670Z,9.32
2023-02-09T21:01:18.239Z,9.00
2023-02-09T21:04:03.997Z,8.38
2023-02-09T21:06:54.011Z,8.85
2023-02-09T21:09:51.605Z,8.57
2023-02-09T21:12:39.859Z,7.63
2023-02-09T21:15:26.051Z,8.95
2023-02-09T21:18:13.906Z,8.52
2023-02-09T21:21:03.650Z,10.05
2023-02-09T21:23:49.622Z,9.90
2023-02-09T21:26:40.250Z,10.32
2023-02-09T21:29:26.125Z,12.07
2023-02-09T21:32:11.374Z,10.38
2023-02-09T21:34:57.225Z,11.15
2023-02-09T21:37:43.368Z,10.85
2023-02-09T21:40:29.001Z,9.38
2023-02-09T21:43:14.663Z,9.85
2023-02-09T21:46:00.902Z,10.10
2023-02-09T21:48:46.856Z,10.63
2023-02-09T21:51:34.346Z,10.50
2023-02-09T21:54:19.873Z,10.30
2023-02-09T21:57:05.634Z,10.07
2023-02-09T21:59:51.692Z,11.10
2023-02-09T22:02:37.872Z,10.40
2023-02-09T22:05:24.055Z,12.00
2023-02-09T22:08:09.769Z,11.82
2023-02-09T22:10:55.758Z,10.77
2023-02-09T22:13:41.582Z,9.75
2023-02-09T22:16:29.568Z,9.10
2023-02-09T22:19:15.560Z,8.82
2023-02-09T22:22:02.092Z,9.07
2023-02-09T22:24:47.739Z,9.80
2023-02-09T22:27:34.302Z,10.25
2023-02-09T22:30:20.391Z,12.55
2023-02-09T22:33:05.867Z,10.50
2023-02-09T22:35:52.025Z,9.35
2023-02-09T22:38:37.908Z,9.80
2023-02-09T22:41:24.448Z,10.45
2023-02-09T22:44:12.773Z,11.82
2023-02-09T22:46:58.550Z,9.73
2023-02-09T22:49:46.564Z,9.80
2023-02-09T22:52:32.072Z,10.30
2023-02-09T22:55:17.649Z,10.35
2023-02-09T22:58:03.189Z,10.63
2023-02-09T23:00:50.060Z,12.13
2023-02-09T23:03:37.691Z,8.45
2023-02-09T23:06:27.047Z,9.95
2023-02-09T23:09:13.480Z,10.45
2023-02-09T23:11:58.784Z,11.25
2023-02-09T23:14:44.291Z,11.90
2023-02-09T23:17:30.022Z,10.63
2023-02-09T23:20:15.481Z,11.73
2023-02-09T23:23:06.557Z,12.27
2023-02-09T23:25:52.322Z,9.73
2023-02-09T23:28:37.741Z,11.18
2023-02-09T23:31:27.022Z,12.32
2023-02-09T23:34:21.911Z,11.65
2023-02-09T23:37:18.123Z,11.48
2023-02-09T23:40:10.207Z,10.88
2023-02-09T23:42:55.932Z,12.48
2023-02-09T23:45:41.735Z,11.07
2023-02-09T23:48:27.550Z,10.88
2023-02-09T23:51:17.200Z,11.77
2023-02-09T23:54:05.149Z,10.45
2023-02-09T23:56:52.070Z,9.85
2023-02-09T23:59:38.965Z,10.27
